sensor_id;sensor_type;location;lat;lon;timestamp;P1;durP1;ratioP1;P2;durP2;ratioP2
7527;SDS011;3805;49.006;8.514;2023-06-10T00:00:35;11.37;;;10.37;;
7527;SDS011;3805;49.006;8.514;2023-06-10T00:03:25;10.97;;;9.97;;
7527;SDS011;3805;49.006;8.514;2023-06-10T00:06:13;10.80;;;9.73;;
7527;SDS011;3805;49.006;8.514;2023-06-10T00:09:03;10.50;;;9.70;;
7527;SDS011;3805;49.006;8.514;2023-06-10T00:11:52;11.23;;;10.23;;
7527;SDS011;3805;49.006;8.514;2023-06-10T00:14:41;10.33;;;9.53;;
7527;SDS011;3805;49.006;8.514;2023-06-10T00:17:30;11.53;;;10.57;;
7527;SDS011;3805;49.006;8.514;2023-06-10T00:20:21;12.17;;;11.17;;
7527;SDS011;3805;49.006;8.514;2023-06-10T00:23:10;11.60;;;10.50;;
7527;SDS011;3805;49.006;8.514;2023-06-10T00:25:59;12.70;;;11.60;;
7527;SDS011;3805;49.006;8.514;2023-06-10T00:28:47;12.13;;;10.93;;
7527;SDS011;3805;49.006;8.514;2023-06-10T00:31:36;12.40;;;11.40;;
7527;SDS011;3805;49.006;8.514;2023-06-10T00:34:25;12.33;;;11.10;;
7527;SDS011;3805;49.006;8.514;2023-06-10T00:37:15;10.93;;;10.03;;
7527;SDS011;3805;49.006;8.514;2023-06-10T00:40:04;12.13;;;11.17;;
7527;SDS011;3805;49.006;8.514;2023-06-10T00:42:56;11.97;;;10.73;;
7527;SDS011;3805;49.006;8.514;2023-06-10T00:45:44;11.30;;;10.40;;
7527;SDS011;3805;49.006;8.514;2023-06-10T00:48:33;11.13;;;10.27;;
7527;SDS011;3805;49.006;8.514;2023-06-10T00:51:22;10.70;;;9.70;;
7527;SDS011;3805;49.006;8.514;2023-06-10T00:54:12;11.73;;;10.83;;
7527;SDS011;3805;49.006;8.514;2023-06-10T00:57:01;11.57;;;10.67;;
7527;SDS011;3805;49.006;8.514;2023-06-10T00:59:50;12.23;;;11.23;;
7527;SDS011;3805;49.006;8.514;2023-06-10T01:02:39;12.47;;;11.43;;
7527;SDS011;3805;49.006;8.514;2023-06-10T01:05:28;12.57;;;11.63;;
7527;SDS011;3805;49.006;8.514;2023-06-10T01:08:18;12.47;;;11.47;;
7527;SDS011;3805;49.006;8.514;2023-06-10T01:11:28;12.70;;;11.63;;
7527;SDS011;3805;49.006;8.514;2023-06-10T01:14:18;13.07;;;12.03;;
7527;SDS011;3805;49.006;8.514;2023-06-10T01:17:07;13.47;;;12.43;;
7527;SDS011;3805;49.006;8.514;2023-06-10T01:19:57;12.47;;;11.43;;
7527;SDS011;3805;49.006;8.514;2023-06-10T01:22:47;12.57;;;11.43;;
7527;SDS011;3805;49.006;8.514;2023-06-10T01:25:37;13.07;;;11.97;;
7527;SDS011;3805;49.006;8.514;2023-06-10T01:28:27;12.77;;;11.67;;
7527;SDS011;3805;49.006;8.514;2023-06-10T01:31:20;12.83;;;11.73;;
7527;SDS011;3805;49.006;8.514;2023-06-10T01:34:14;14.47;;;13.23;;
7527;SDS011;3805;49.006;8.514;2023-06-10T01:37:05;12.63;;;11.70;;
7527;SDS011;3805;49.006;8.514;2023-06-10T01:39:56;13.63;;;12.23;;
7527;SDS011;3805;49.006;8.514;2023-06-10T01:42:45;15.30;;;12.63;;
7527;SDS011;3805;49.006;8.514;2023-06-10T01:45:34;13.27;;;12.27;;
7527;SDS011;3805;49.006;8.514;2023-06-10T01:48:22;12.70;;;11.60;;
7527;SDS011;3805;49.006;8.514;2023-06-10T01:51:11;12.47;;;11.53;;
7527;SDS011;3805;49.006;8.514;2023-06-10T01:54:00;12.70;;;11.50;;
7527;SDS011;3805;49.006;8.514;2023-06-10T01:56:49;13.90;;;12.63;;
7527;SDS011;3805;49.006;8.514;2023-06-10T01:59:38;11.53;;;10.63;;
7527;SDS011;3805;49.006;8.514;2023-06-10T02:02:27;12.93;;;11.70;;
7527;SDS011;3805;49.006;8.514;2023-06-10T02:05:15;12.63;;;11.63;;
7527;SDS011;3805;49.006;8.514;2023-06-10T02:08:04;14.23;;;12.93;;
7527;SDS011;3805;49.006;8.514;2023-06-10T02:10:53;13.33;;;12.13;;
7527;SDS011;3805;49.006;8.514;2023-06-10T02:13:43;14.67;;;13.27;;
7527;SDS011;3805;49.006;8.514;2023-06-10T02:16:32;14.27;;;13.07;;
7527;SDS011;3805;49.006;8.514;2023-06-10T02:19:21;13.53;;;12.23;;
7527;SDS011;3805;49.006;8.514;2023-06-10T02:22:10;13.67;;;12.67;;
7527;SDS011;3805;49.006;8.514;2023-06-10T02:24:59;12.80;;;11.80;;
7527;SDS011;3805;49.006;8.514;2023-06-10T02:27:47;13.57;;;12.47;;
7527;SDS011;3805;49.006;8.514;2023-06-10T02:30:41;14.33;;;13.03;;
7527;SDS011;3805;49.006;8.514;2023-06-10T02:33:30;14.33;;;13.03;;
7527;SDS011;3805;49.006;8.514;2023-06-10T02:36:20;13.40;;;12.10;;
7527;SDS011;3805;49.006;8.514;2023-06-10T02:39:11;14.10;;;12.80;;
7527;SDS011;3805;49.006;8.514;2023-06-10T02:42:00;14.50;;;13.20;;
7527;SDS011;3805;49.006;8.514;2023-06-10T02:44:48;14.03;;;12.63;;
7527;SDS011;3805;49.006;8.514;2023-06-10T02:47:38;13.63;;;12.53;;
7527;SDS011;3805;49.006;8.514;2023-06-10T02:50:27;13.77;;;12.67;;
7527;SDS011;3805;49.006;8.514;2023-06-10T02:53:16;14.10;;;12.80;;
7527;SDS011;3805;49.006;8.514;2023-06-10T02:56:05;13.03;;;12.03;;
7527;SDS011;3805;49.006;8.514;2023-06-10T02:58:53;13.40;;;12.10;;
7527;SDS011;3805;49.006;8.514;2023-06-10T03:01:42;14.00;;;12.60;;
7527;SDS011;3805;49.006;8.514;2023-06-10T03:04:32;13.13;;;12.03;;
7527;SDS011;3805;49.006;8.514;2023-06-10T03:07:21;12.90;;;11.90;;
7527;SDS011;3805;49.006;8.514;2023-06-10T03:10:10;13.30;;;12.10;;
7527;SDS011;3805;49.006;8.514;2023-06-10T03:12:58;14.07;;;12.97;;
7527;SDS011;3805;49.006;8.514;2023-06-10T03:15:47;13.50;;;12.30;;
7527;SDS011;3805;49.006;8.514;2023-06-10T03:18:36;12.40;;;11.30;;
7527;SDS011;3805;49.006;8.514;2023-06-10T03:21:26;13.43;;;12.33;;
7527;SDS011;3805;49.006;8.514;2023-06-10T03:24:15;15.37;;;14.07;;
7527;SDS011;3805;49.006;8.514;2023-06-10T03:27:04;13.90;;;12.67;;
7527;SDS011;3805;49.006;8.514;2023-06-10T03:29:53;13.47;;;12.27;;
7527;SDS011;3805;49.006;8.514;2023-06-10T03:32:41;13.20;;;12.10;;
7527;SDS011;3805;49.006;8.514;2023-06-10T03:35:30;13.67;;;12.50;;
7527;SDS011;3805;49.006;8.514;2023-06-10T03:38:21;16.83;;;12.27;;
7527;SDS011;3805;49.006;8.514;2023-06-10T03:41:09;14.70;;;13.50;;
7527;SDS011;3805;49.006;8.514;2023-06-10T03:43:58;14.20;;;12.80;;
7527;SDS011;3805;49.006;8.514;2023-06-10T03:46:47;15.60;;;12.30;;
7527;SDS011;3805;49.006;8.514;2023-06-10T03:49:36;13.13;;;12.03;;
7527;SDS011;3805;49.006;8.514;2023-06-10T03:52:24;13.73;;;12.43;;
7527;SDS011;3805;49.006;8.514;2023-06-10T03:55:14;14.13;;;12.93;;
7527;SDS011;3805;49.006;8.514;2023-06-10T03:58:03;13.97;;;12.87;;
7527;SDS011;3805;49.006;8.514;2023-06-10T04:00:52;15.27;;;13.77;;
7527;SDS011;3805;49.006;8.514;2023-06-10T04:03:42;13.93;;;12.73;;
7527;SDS011;3805;49.006;8.514;2023-06-10T04:06:30;15.27;;;14.00;;
7527;SDS011;3805;49.006;8.514;2023-06-10T04:09:19;16.27;;;14.60;;
7527;SDS011;3805;49.006;8.514;2023-06-10T04:12:09;14.77;;;13.37;;
7527;SDS011;3805;49.006;8.514;2023-06-10T04:14:58;14.10;;;13.00;;
7527;SDS011;3805;49.006;8.514;2023-06-10T04:17:46;15.70;;;14.40;;
7527;SDS011;3805;49.006;8.514;2023-06-10T04:20:36;22.13;;;14.80;;
7527;SDS011;3805;49.006;8.514;2023-06-10T04:23:25;15.93;;;14.53;;
7527;SDS011;3805;49.006;8.514;2023-06-10T04:26:13;15.50;;;14.00;;
7527;SDS011;3805;49.006;8.514;2023-06-10T04:29:04;14.70;;;13.33;;
7527;SDS011;3805;49.006;8.514;2023-06-10T04:31:52;14.50;;;13.20;;
7527;SDS011;3805;49.006;8.514;2023-06-10T04:34:41;14.33;;;13.03;;
7527;SDS011;3805;49.006;8.514;2023-06-10T04:37:29;14.50;;;13.30;;
7527;SDS011;3805;49.006;8.514;2023-06-10T04:40:19;14.77;;;13.57;;
7527;SDS011;3805;49.006;8.514;2023-06-10T04:43:07;15.30;;;13.87;;
7527;SDS011;3805;49.006;8.514;2023-06-10T04:45:57;15.10;;;13.80;;
7527;SDS011;3805;49.006;8.514;2023-06-10T04:48:46;14.63;;;13.33;;
7527;SDS011;3805;49.006;8.514;2023-06-10T04:51:35;14.50;;;13.20;;
7527;SDS011;3805;49.006;8.514;2023-06-10T04:54:24;14.90;;;13.60;;
7527;SDS011;3805;49.006;8.514;2023-06-10T04:57:13;14.13;;;12.90;;
7527;SDS011;3805;49.006;8.514;2023-06-10T05:00:02;13.47;;;12.13;;
7527;SDS011;3805;49.006;8.514;2023-06-10T05:02:54;15.17;;;13.87;;
7527;SDS011;3805;49.006;8.514;2023-06-10T05:05:43;14.47;;;13.10;;
7527;SDS011;3805;49.006;8.514;2023-06-10T05:08:32;15.33;;;13.83;;
7527;SDS011;3805;49.006;8.514;2023-06-10T05:11:21;14.70;;;13.40;;
7527;SDS011;3805;49.006;8.514;2023-06-10T05:14:09;13.20;;;12.07;;
7527;SDS011;3805;49.006;8.514;2023-06-10T05:16:58;15.10;;;13.83;;
7527;SDS011;3805;49.006;8.514;2023-06-10T05:19:48;13.07;;;11.77;;
7527;SDS011;3805;49.006;8.514;2023-06-10T05:22:37;13.67;;;12.57;;
7527;SDS011;3805;49.006;8.514;2023-06-10T05:25:26;12.40;;;11.30;;
7527;SDS011;3805;49.006;8.514;2023-06-10T05:28:14;12.83;;;11.73;;
7527;SDS011;3805;49.006;8.514;2023-06-10T05:31:03;12.87;;;11.83;;
7527;SDS011;3805;49.006;8.514;2023-06-10T05:33:52;11.00;;;10.20;;
7527;SDS011;3805;49.006;8.514;2023-06-10T05:36:42;11.53;;;10.63;;
7527;SDS011;3805;49.006;8.514;2023-06-10T05:39:30;11.57;;;10.63;;
7527;SDS011;3805;49.006;8.514;2023-06-10T05:42:19;12.07;;;10.60;;
7527;SDS011;3805;49.006;8.514;2023-06-10T05:45:08;11.63;;;10.63;;
7527;SDS011;3805;49.006;8.514;2023-06-10T05:47:58;10.77;;;9.80;;
7527;SDS011;3805;49.006;8.514;2023-06-10T05:50:47;9.90;;;9.10;;
7527;SDS011;3805;49.006;8.514;2023-06-10T05:53:37;9.90;;;9.10;;
7527;SDS011;3805;49.006;8.514;2023-06-10T05:56:26;9.90;;;9.20;;
7527;SDS011;3805;49.006;8.514;2023-06-10T05:59:15;8.67;;;8.00;;
7527;SDS011;3805;49.006;8.514;2023-06-10T06:02:04;9.00;;;8.30;;
7527;SDS011;3805;49.006;8.514;2023-06-10T06:04:53;8.70;;;8.07;;
7527;SDS011;3805;49.006;8.514;2023-06-10T06:07:42;8.63;;;7.93;;
7527;SDS011;3805;49.006;8.514;2023-06-10T06:10:32;8.80;;;8.10;;
7527;SDS011;3805;49.006;8.514;2023-06-10T06:13:21;8.73;;;8.03;;
7527;SDS011;3805;49.006;8.514;2023-06-10T06:16:09;8.20;;;7.10;;
7527;SDS011;3805;49.006;8.514;2023-06-10T06:18:58;8.23;;;7.57;;
7527;SDS011;3805;49.006;8.514;2023-06-10T06:21:52;7.80;;;7.20;;
7527;SDS011;3805;49.006;8.514;2023-06-10T06:24:41;7.60;;;7.00;;
7527;SDS011;3805;49.006;8.514;2023-06-10T06:27:31;7.90;;;7.30;;
7527;SDS011;3805;49.006;8.514;2023-06-10T06:30:20;7.03;;;6.53;;
7527;SDS011;3805;49.006;8.514;2023-06-10T06:33:10;7.30;;;6.70;;
7527;SDS011;3805;49.006;8.514;2023-06-10T06:35:59;6.53;;;6.13;;
7527;SDS011;3805;49.006;8.514;2023-06-10T06:38:47;6.60;;;6.10;;
7527;SDS011;3805;49.006;8.514;2023-06-10T06:41:36;7.13;;;6.63;;
7527;SDS011;3805;49.006;8.514;2023-06-10T06:44:26;7.10;;;6.60;;
7527;SDS011;3805;49.006;8.514;2023-06-10T06:47:14;6.80;;;6.27;;
7527;SDS011;3805;49.006;8.514;2023-06-10T06:50:05;6.90;;;6.40;;
7527;SDS011;3805;49.006;8.514;2023-06-10T06:52:54;6.50;;;5.90;;
7527;SDS011;3805;49.006;8.514;2023-06-10T06:55:42;7.30;;;6.70;;
7527;SDS011;3805;49.006;8.514;2023-06-10T06:58:31;7.30;;;6.60;;
7527;SDS011;3805;49.006;8.514;2023-06-10T07:01:21;6.80;;;6.30;;
7527;SDS011;3805;49.006;8.514;2023-06-10T07:04:09;8.37;;;6.23;;
7527;SDS011;3805;49.006;8.514;2023-06-10T07:06:58;6.90;;;6.40;;
7527;SDS011;3805;49.006;8.514;2023-06-10T07:09:47;6.90;;;6.40;;
7527;SDS011;3805;49.006;8.514;2023-06-10T07:12:35;6.23;;;5.70;;
7527;SDS011;3805;49.006;8.514;2023-06-10T07:15:24;7.03;;;6.33;;
7527;SDS011;3805;49.006;8.514;2023-06-10T07:18:14;7.13;;;6.57;;
7527;SDS011;3805;49.006;8.514;2023-06-10T07:21:03;6.90;;;6.40;;
7527;SDS011;3805;49.006;8.514;2023-06-10T07:23:51;6.73;;;6.13;;
7527;SDS011;3805;49.006;8.514;2023-06-10T07:26:40;7.37;;;6.83;;
7527;SDS011;3805;49.006;8.514;2023-06-10T07:29:29;7.13;;;6.50;;
7527;SDS011;3805;49.006;8.514;2023-06-10T07:32:18;6.90;;;6.40;;
7527;SDS011;3805;49.006;8.514;2023-06-10T07:35:10;6.67;;;6.17;;
7527;SDS011;3805;49.006;8.514;2023-06-10T07:37:59;5.73;;;5.33;;
7527;SDS011;3805;49.006;8.514;2023-06-10T07:40:48;7.27;;;6.77;;
7527;SDS011;3805;49.006;8.514;2023-06-10T07:43:36;6.90;;;6.23;;
7527;SDS011;3805;49.006;8.514;2023-06-10T07:46:25;6.70;;;6.30;;
7527;SDS011;3805;49.006;8.514;2023-06-10T07:49:14;6.50;;;6.10;;
7527;SDS011;3805;49.006;8.514;2023-06-10T07:52:05;6.57;;;6.07;;
7527;SDS011;3805;49.006;8.514;2023-06-10T07:54:56;5.93;;;5.53;;
7527;SDS011;3805;49.006;8.514;2023-06-10T07:57:45;6.83;;;6.23;;
7527;SDS011;3805;49.006;8.514;2023-06-10T08:00:33;6.40;;;5.97;;
7527;SDS011;3805;49.006;8.514;2023-06-10T08:03:22;6.33;;;5.83;;
7527;SDS011;3805;49.006;8.514;2023-06-10T08:06:10;5.80;;;5.43;;
7527;SDS011;3805;49.006;8.514;2023-06-10T08:09:00;5.87;;;5.37;;
7527;SDS011;3805;49.006;8.514;2023-06-10T08:11:49;6.27;;;5.77;;
7527;SDS011;3805;49.006;8.514;2023-06-10T08:14:38;6.33;;;5.93;;
7527;SDS011;3805;49.006;8.514;2023-06-10T08:17:26;6.50;;;5.90;;
7527;SDS011;3805;49.006;8.514;2023-06-10T08:20:15;5.13;;;4.73;;
7527;SDS011;3805;49.006;8.514;2023-06-10T08:23:04;6.10;;;5.60;;
7527;SDS011;3805;49.006;8.514;2023-06-10T08:25:54;5.63;;;5.23;;
7527;SDS011;3805;49.006;8.514;2023-06-10T08:28:43;5.77;;;5.47;;
7527;SDS011;3805;49.006;8.514;2023-06-10T08:31:32;6.27;;;5.77;;
7527;SDS011;3805;49.006;8.514;2023-06-10T08:34:21;11.33;;;7.13;;
7527;SDS011;3805;49.006;8.514;2023-06-10T08:37:09;6.00;;;5.60;;
7527;SDS011;3805;49.006;8.514;2023-06-10T08:39:58;6.50;;;5.80;;
7527;SDS011;3805;49.006;8.514;2023-06-10T08:42:51;6.17;;;5.67;;
7527;SDS011;3805;49.006;8.514;2023-06-10T08:45:42;6.17;;;5.77;;
7527;SDS011;3805;49.006;8.514;2023-06-10T08:48:31;6.23;;;5.80;;
7527;SDS011;3805;49.006;8.514;2023-06-10T08:51:23;6.77;;;6.03;;
7527;SDS011;3805;49.006;8.514;2023-06-10T08:54:15;5.50;;;5.10;;
7527;SDS011;3805;49.006;8.514;2023-06-10T08:57:06;6.50;;;5.90;;
7527;SDS011;3805;49.006;8.514;2023-06-10T08:59:57;6.30;;;5.90;;
7527;SDS011;3805;49.006;8.514;2023-06-10T09:02:45;6.00;;;5.60;;
7527;SDS011;3805;49.006;8.514;2023-06-10T09:05:35;6.43;;;5.90;;
7527;SDS011;3805;49.006;8.514;2023-06-10T09:08:23;6.30;;;5.80;;
7527;SDS011;3805;49.006;8.514;2023-06-10T09:11:12;6.90;;;6.40;;
7527;SDS011;3805;49.006;8.514;2023-06-10T09:14:01;5.87;;;5.47;;
7527;SDS011;3805;49.006;8.514;2023-06-10T09:16:51;6.77;;;6.30;;
7527;SDS011;3805;49.006;8.514;2023-06-10T09:19:43;6.10;;;5.63;;
7527;SDS011;3805;49.006;8.514;2023-06-10T09:22:32;6.80;;;6.30;;
7527;SDS011;3805;49.006;8.514;2023-06-10T09:25:21;6.90;;;6.40;;
7527;SDS011;3805;49.006;8.514;2023-06-10T09:28:22;7.20;;;6.60;;
7527;SDS011;3805;49.006;8.514;2023-06-10T09:31:11;9.70;;;6.30;;
7527;SDS011;3805;49.006;8.514;2023-06-10T09:34:08;6.90;;;6.40;;
7527;SDS011;3805;49.006;8.514;2023-06-10T09:36:58;6.43;;;6.03;;
7527;SDS011;3805;49.006;8.514;2023-06-10T09:39:58;7.90;;;7.10;;
7527;SDS011;3805;49.006;8.514;2023-06-10T09:42:52;6.70;;;6.20;;
7527;SDS011;3805;49.006;8.514;2023-06-10T09:45:42;5.93;;;5.53;;
7527;SDS011;3805;49.006;8.514;2023-06-10T09:48:34;6.93;;;6.33;;
7527;SDS011;3805;49.006;8.514;2023-06-10T09:51:24;7.23;;;6.73;;
7527;SDS011;3805;49.006;8.514;2023-06-10T09:54:13;6.70;;;6.20;;
7527;SDS011;3805;49.006;8.514;2023-06-10T09:57:06;6.33;;;5.93;;
7527;SDS011;3805;49.006;8.514;2023-06-10T09:59:55;6.47;;;5.97;;
7527;SDS011;3805;49.006;8.514;2023-06-10T10:02:44;6.87;;;6.30;;
7527;SDS011;3805;49.006;8.514;2023-06-10T10:05:35;6.80;;;6.30;;
7527;SDS011;3805;49.006;8.514;2023-06-10T10:08:25;7.37;;;6.87;;
7527;SDS011;3805;49.006;8.514;2023-06-10T10:11:13;6.23;;;5.83;;
7527;SDS011;3805;49.006;8.514;2023-06-10T10:14:03;6.80;;;6.23;;
7527;SDS011;3805;49.006;8.514;2023-06-10T10:16:55;6.40;;;5.80;;
7527;SDS011;3805;49.006;8.514;2023-06-10T10:19:46;6.33;;;5.93;;
7527;SDS011;3805;49.006;8.514;2023-06-10T10:22:37;6.63;;;6.03;;
7527;SDS011;3805;49.006;8.514;2023-06-10T10:25:29;7.27;;;6.57;;
7527;SDS011;3805;49.006;8.514;2023-06-10T10:28:29;6.10;;;5.80;;
7527;SDS011;3805;49.006;8.514;2023-06-10T10:31:24;6.00;;;5.50;;
7527;SDS011;3805;49.006;8.514;2023-06-10T10:34:16;6.80;;;6.40;;
7527;SDS011;3805;49.006;8.514;2023-06-10T10:37:08;6.77;;;6.27;;
7527;SDS011;3805;49.006;8.514;2023-06-10T10:39:57;6.20;;;5.67;;
7527;SDS011;3805;49.006;8.514;2023-06-10T10:42:48;6.40;;;6.00;;
7527;SDS011;3805;49.006;8.514;2023-06-10T10:45:37;6.37;;;5.97;;
7527;SDS011;3805;49.006;8.514;2023-06-10T10:48:26;6.60;;;5.80;;
7527;SDS011;3805;49.006;8.514;2023-06-10T10:51:16;6.80;;;6.30;;
7527;SDS011;3805;49.006;8.514;2023-06-10T10:54:11;6.80;;;6.20;;
7527;SDS011;3805;49.006;8.514;2023-06-10T10:57:10;6.23;;;5.73;;
7527;SDS011;3805;49.006;8.514;2023-06-10T11:00:04;6.90;;;6.30;;
7527;SDS011;3805;49.006;8.514;2023-06-10T11:02:57;6.73;;;6.23;;
7527;SDS011;3805;49.006;8.514;2023-06-10T11:05:49;6.40;;;5.90;;
7527;SDS011;3805;49.006;8.514;2023-06-10T11:08:47;7.20;;;6.70;;
7527;SDS011;3805;49.006;8.514;2023-06-10T11:11:36;8.37;;;6.70;;
7527;SDS011;3805;49.006;8.514;2023-06-10T11:14:37;7.20;;;6.50;;
7527;SDS011;3805;49.006;8.514;2023-06-10T11:20:57;6.27;;;5.83;;
7527;SDS011;3805;49.006;8.514;2023-06-10T11:23:46;6.77;;;6.37;;
7527;SDS011;3805;49.006;8.514;2023-06-10T11:26:43;6.80;;;6.30;;
7527;SDS011;3805;49.006;8.514;2023-06-10T11:29:32;6.27;;;5.77;;
7527;SDS011;3805;49.006;8.514;2023-06-10T11:32:20;6.00;;;5.60;;
7527;SDS011;3805;49.006;8.514;2023-06-10T11:35:10;6.87;;;6.47;;
7527;SDS011;3805;49.006;8.514;2023-06-10T11:37:59;7.07;;;6.40;;
7527;SDS011;3805;49.006;8.514;2023-06-10T11:40:49;6.40;;;6.00;;
7527;SDS011;3805;49.006;8.514;2023-06-10T11:43:37;5.80;;;5.40;;
7527;SDS011;3805;49.006;8.514;2023-06-10T11:46:29;6.50;;;5.77;;
7527;SDS011;3805;49.006;8.514;2023-06-10T11:49:17;7.57;;;7.07;;
7527;SDS011;3805;49.006;8.514;2023-06-10T11:52:10;7.10;;;6.40;;
7527;SDS011;3805;49.006;8.514;2023-06-10T11:54:59;6.33;;;5.83;;
7527;SDS011;3805;49.006;8.514;2023-06-10T11:57:47;6.20;;;5.80;;
7527;SDS011;3805;49.006;8.514;2023-06-10T12:00:45;7.00;;;6.40;;
7527;SDS011;3805;49.006;8.514;2023-06-10T12:03:35;6.33;;;5.90;;
7527;SDS011;3805;49.006;8.514;2023-06-10T12:06:25;6.57;;;6.00;;
7527;SDS011;3805;49.006;8.514;2023-06-10T12:09:18;6.57;;;6.07;;
7527;SDS011;3805;49.006;8.514;2023-06-10T12:12:13;6.20;;;5.70;;
7527;SDS011;3805;49.006;8.514;2023-06-10T12:15:02;5.90;;;5.60;;
7527;SDS011;3805;49.006;8.514;2023-06-10T12:17:52;5.50;;;5.10;;
7527;SDS011;3805;49.006;8.514;2023-06-10T12:20:41;6.53;;;6.03;;
7527;SDS011;3805;49.006;8.514;2023-06-10T12:23:30;6.87;;;6.27;;
7527;SDS011;3805;49.006;8.514;2023-06-10T12:26:20;6.00;;;5.50;;
7527;SDS011;3805;49.006;8.514;2023-06-10T12:29:23;6.10;;;5.70;;
7527;SDS011;3805;49.006;8.514;2023-06-10T12:32:12;6.07;;;5.63;;
7527;SDS011;3805;49.006;8.514;2023-06-10T12:35:02;5.77;;;5.37;;
7527;SDS011;3805;49.006;8.514;2023-06-10T12:37:55;5.13;;;4.83;;
7527;SDS011;3805;49.006;8.514;2023-06-10T12:40:44;6.10;;;5.60;;
7527;SDS011;3805;49.006;8.514;2023-06-10T12:43:35;5.77;;;5.27;;
7527;SDS011;3805;49.006;8.514;2023-06-10T12:46:24;5.90;;;5.40;;
7527;SDS011;3805;49.006;8.514;2023-06-10T12:49:18;6.20;;;5.80;;
7527;SDS011;3805;49.006;8.514;2023-06-10T12:52:08;5.70;;;5.30;;
7527;SDS011;3805;49.006;8.514;2023-06-10T12:54:56;6.83;;;6.23;;
7527;SDS011;3805;49.006;8.514;2023-06-10T12:57:48;5.77;;;5.37;;
7527;SDS011;3805;49.006;8.514;2023-06-10T13:00:39;6.63;;;6.00;;
7527;SDS011;3805;49.006;8.514;2023-06-10T13:03:28;8.80;;;7.97;;
7527;SDS011;3805;49.006;8.514;2023-06-10T13:06:17;5.50;;;5.00;;
7527;SDS011;3805;49.006;8.514;2023-06-10T13:09:07;5.80;;;5.40;;
7527;SDS011;3805;49.006;8.514;2023-06-10T13:11:55;6.53;;;5.93;;
7527;SDS011;3805;49.006;8.514;2023-06-10T13:14:44;6.80;;;5.60;;
7527;SDS011;3805;49.006;8.514;2023-06-10T13:17:34;5.50;;;5.07;;
7527;SDS011;3805;49.006;8.514;2023-06-10T13:20:23;6.17;;;5.70;;
7527;SDS011;3805;49.006;8.514;2023-06-10T13:23:13;5.23;;;4.93;;
7527;SDS011;3805;49.006;8.514;2023-06-10T13:26:02;6.77;;;6.17;;
7527;SDS011;3805;49.006;8.514;2023-06-10T13:28:51;6.33;;;5.93;;
7527;SDS011;3805;49.006;8.514;2023-06-10T13:31:39;6.27;;;5.80;;
7527;SDS011;3805;49.006;8.514;2023-06-10T13:34:30;6.13;;;5.70;;
7527;SDS011;3805;49.006;8.514;2023-06-10T13:37:19;5.77;;;5.37;;
7527;SDS011;3805;49.006;8.514;2023-06-10T13:40:08;5.17;;;4.70;;
7527;SDS011;3805;49.006;8.514;2023-06-10T13:42:57;6.07;;;5.57;;
7527;SDS011;3805;49.006;8.514;2023-06-10T13:45:46;6.00;;;5.57;;
7527;SDS011;3805;49.006;8.514;2023-06-10T13:48:35;5.93;;;5.43;;
7527;SDS011;3805;49.006;8.514;2023-06-10T13:51:25;5.60;;;5.27;;
7527;SDS011;3805;49.006;8.514;2023-06-10T13:54:14;7.03;;;6.43;;
7527;SDS011;3805;49.006;8.514;2023-06-10T13:57:03;6.00;;;5.60;;
7527;SDS011;3805;49.006;8.514;2023-06-10T13:59:52;6.40;;;5.80;;
7527;SDS011;3805;49.006;8.514;2023-06-10T14:02:40;6.23;;;5.63;;
7527;SDS011;3805;49.006;8.514;2023-06-10T14:05:29;5.73;;;5.27;;
7527;SDS011;3805;49.006;8.514;2023-06-10T14:08:19;6.37;;;5.87;;
7527;SDS011;3805;49.006;8.514;2023-06-10T14:11:09;5.57;;;5.10;;
7527;SDS011;3805;49.006;8.514;2023-06-10T14:13:58;4.90;;;4.50;;
7527;SDS011;3805;49.006;8.514;2023-06-10T14:16:47;5.70;;;5.30;;
7527;SDS011;3805;49.006;8.514;2023-06-10T14:19:36;5.70;;;5.30;;
7527;SDS011;3805;49.006;8.514;2023-06-10T14:22:25;6.47;;;5.93;;
7527;SDS011;3805;49.006;8.514;2023-06-10T14:25:15;5.13;;;4.77;;
7527;SDS011;3805;49.006;8.514;2023-06-10T14:28:04;5.30;;;4.90;;
7527;SDS011;3805;49.006;8.514;2023-06-10T14:30:53;5.00;;;4.67;;
7527;SDS011;3805;49.006;8.514;2023-06-10T14:33:41;6.00;;;5.53;;
7527;SDS011;3805;49.006;8.514;2023-06-10T14:36:30;5.60;;;5.20;;
7527;SDS011;3805;49.006;8.514;2023-06-10T14:39:19;5.47;;;5.07;;
7527;SDS011;3805;49.006;8.514;2023-06-10T14:42:09;5.17;;;4.80;;
7527;SDS011;3805;49.006;8.514;2023-06-10T14:44:58;5.70;;;5.30;;
7527;SDS011;3805;49.006;8.514;2023-06-10T14:47:47;5.90;;;4.80;;
7527;SDS011;3805;49.006;8.514;2023-06-10T14:50:36;4.40;;;4.20;;
7527;SDS011;3805;49.006;8.514;2023-06-10T14:53:24;5.00;;;4.60;;
7527;SDS011;3805;49.006;8.514;2023-06-10T14:56:13;4.90;;;4.60;;
7527;SDS011;3805;49.006;8.514;2023-06-10T14:59:03;5.00;;;4.60;;
7527;SDS011;3805;49.006;8.514;2023-06-10T15:01:52;4.67;;;4.37;;
7527;SDS011;3805;49.006;8.514;2023-06-10T15:04:40;5.20;;;4.80;;
7527;SDS011;3805;49.006;8.514;2023-06-10T15:07:29;4.77;;;4.47;;
7527;SDS011;3805;49.006;8.514;2023-06-10T15:10:17;5.53;;;5.13;;
7527;SDS011;3805;49.006;8.514;2023-06-10T15:13:10;5.70;;;5.30;;
7527;SDS011;3805;49.006;8.514;2023-06-10T15:16:00;5.03;;;4.73;;
7527;SDS011;3805;49.006;8.514;2023-06-10T15:18:50;5.17;;;4.77;;
7527;SDS011;3805;49.006;8.514;2023-06-10T15:21:38;4.90;;;4.60;;
7527;SDS011;3805;49.006;8.514;2023-06-10T15:24:27;7.70;;;7.10;;
7527;SDS011;3805;49.006;8.514;2023-06-10T15:27:16;4.30;;;4.10;;
7527;SDS011;3805;49.006;8.514;2023-06-10T15:30:05;5.33;;;5.03;;
7527;SDS011;3805;49.006;8.514;2023-06-10T15:32:55;4.67;;;4.37;;
7527;SDS011;3805;49.006;8.514;2023-06-10T15:35:44;4.77;;;4.47;;
7527;SDS011;3805;49.006;8.514;2023-06-10T15:38:33;4.77;;;4.47;;
7527;SDS011;3805;49.006;8.514;2023-06-10T15:41:22;6.33;;;4.83;;
7527;SDS011;3805;49.006;8.514;2023-06-10T15:44:10;4.77;;;4.47;;
7527;SDS011;3805;49.006;8.514;2023-06-10T15:46:59;5.43;;;4.90;;
7527;SDS011;3805;49.006;8.514;2023-06-10T15:49:49;5.10;;;4.80;;
7527;SDS011;3805;49.006;8.514;2023-06-10T15:52:37;5.00;;;4.70;;
7527;SDS011;3805;49.006;8.514;2023-06-10T15:55:26;3.87;;;3.63;;
7527;SDS011;3805;49.006;8.514;2023-06-10T15:58:16;4.27;;;4.07;;
7527;SDS011;3805;49.006;8.514;2023-06-10T16:01:04;4.53;;;4.23;;
7527;SDS011;3805;49.006;8.514;2023-06-10T16:03:53;4.40;;;4.20;;
7527;SDS011;3805;49.006;8.514;2023-06-10T16:06:44;4.30;;;4.00;;
7527;SDS011;3805;49.006;8.514;2023-06-10T16:09:32;4.40;;;4.10;;
7527;SDS011;3805;49.006;8.514;2023-06-10T16:12:21;5.13;;;4.83;;
7527;SDS011;3805;49.006;8.514;2023-06-10T16:15:10;4.90;;;4.60;;
7527;SDS011;3805;49.006;8.514;2023-06-10T16:17:59;6.07;;;5.70;;
7527;SDS011;3805;49.006;8.514;2023-06-10T16:20:47;4.93;;;4.60;;
7527;SDS011;3805;49.006;8.514;2023-06-10T16:23:37;5.70;;;5.40;;
7527;SDS011;3805;49.006;8.514;2023-06-10T16:26:26;4.93;;;4.63;;
7527;SDS011;3805;49.006;8.514;2023-06-10T16:29:15;5.30;;;5.00;;
7527;SDS011;3805;49.006;8.514;2023-06-10T16:32:04;5.27;;;4.97;;
7527;SDS011;3805;49.006;8.514;2023-06-10T16:34:53;5.00;;;4.70;;
7527;SDS011;3805;49.006;8.514;2023-06-10T16:37:42;4.70;;;4.40;;
7527;SDS011;3805;49.006;8.514;2023-06-10T16:40:32;4.47;;;4.17;;
7527;SDS011;3805;49.006;8.514;2023-06-10T16:43:20;4.30;;;4.00;;
7527;SDS011;3805;49.006;8.514;2023-06-10T16:46:10;5.50;;;5.20;;
7527;SDS011;3805;49.006;8.514;2023-06-10T16:48:58;4.20;;;3.90;;
7527;SDS011;3805;49.006;8.514;2023-06-10T16:51:47;4.80;;;4.30;;
7527;SDS011;3805;49.006;8.514;2023-06-10T16:54:35;4.70;;;4.40;;
7527;SDS011;3805;49.006;8.514;2023-06-10T16:57:25;5.70;;;5.37;;
7527;SDS011;3805;49.006;8.514;2023-06-10T17:00:14;6.33;;;5.93;;
7527;SDS011;3805;49.006;8.514;2023-06-10T17:03:03;5.80;;;5.30;;
7527;SDS011;3805;49.006;8.514;2023-06-10T17:05:52;6.40;;;5.80;;
7527;SDS011;3805;49.006;8.514;2023-06-10T17:08:41;4.90;;;4.60;;
7527;SDS011;3805;49.006;8.514;2023-06-10T17:11:29;4.20;;;4.00;;
7527;SDS011;3805;49.006;8.514;2023-06-10T17:14:20;4.50;;;4.20;;
7527;SDS011;3805;49.006;8.514;2023-06-10T17:17:10;4.70;;;4.30;;
7527;SDS011;3805;49.006;8.514;2023-06-10T17:19:59;4.70;;;4.40;;
7527;SDS011;3805;49.006;8.514;2023-06-10T17:22:47;4.73;;;4.40;;
7527;SDS011;3805;49.006;8.514;2023-06-10T17:25:36;4.60;;;4.20;;